New Holland, Illinois
Current Conditions -  °F | °C
As of 12:55 AM on Monday 22 Dec 2014 (Local Time) from KAAA Reporting Station
Overcast Overcast  
Wind Chill: 32°   Ceiling: 3900
Heat Index: 37°   Visibility: 7mi
Dew Point: 32°   Wind: 7mph
Humidity: 82%   Direction: 150°SSE
Pressure: 29.96"   Gusts: NA
Location:  40.18°N, 89.58°W
Report Text: KAAA 220655Z AUTO 15006KT 7SM BKN039 BKN047 OVC055 03/00 A2996 RMK AO2 T00280000
Loading
Personal Weather Stations






























Interactive Weather Map New forecast layout! Learn more

10-Day Weather Forecast

Advertisements
Track Severe Weather on mobile